Time;durP1;ratioP1;P1;durP2;ratioP2;P2;SDS_P1;SDS_P2;PMS_P1;PMS_P2;Temp;Humidity;BMP_temperature;BMP_pressure;BME280_temperature;BME280_humidity;BME280_pressure;Samples;Min_cycle;Max_cycle;Signal;HPM_P1;HPM_P2
2021/11/07 00:05:42;;;;;;;50.33;23.30;;;6.50;99.90;;;;;;5015414;28;20434;-80
2021/11/07 00:10:42;;;;;;;51.80;23.33;;;4.50;99.90;;;;;;5016647;28;20087;-81
2021/11/07 00:15:39;;;;;;;54.65;23.92;;;4.70;99.90;;;;;;5017000;28;20022;-81
2021/11/07 00:18:11;;;;;;;55.50;22.13;;;6.10;99.90;;;;;;5016663;28;20029;-81
2021/11/07 00:20:44;;;;;;;58.07;23.03;;;4.80;99.90;;;;;;5016188;28;20120;-81
2021/11/07 00:24:00;;;;;;;51.67;23.33;;;4.60;99.90;;;;;;5017660;28;20022;-81
2021/11/07 00:26:14;;;;;;;52.28;22.75;;;5.90;99.90;;;;;;5018489;28;20046;-81
2021/11/07 00:28:45;;;;;;;58.57;24.40;;;4.90;99.90;;;;;;5015298;28;20102;-81
2021/11/07 00:31:23;;;;;;;53.33;22.75;;;6.90;99.90;;;;;;5015669;28;20507;-81
2021/11/07 00:39:07;;;;;;;59.83;24.75;;;5.00;99.90;;;;;;4995813;28;20042;-81
2021/11/07 00:44:30;;;;;;;63.55;24.23;;;5.00;99.90;;;;;;5002017;28;20040;-81
2021/11/07 00:47:43;;;;;;;67.10;23.85;;;5.00;99.90;;;;;;5016406;28;20490;-81
2021/11/07 00:49:51;;;;;;;68.85;23.65;;;6.90;99.90;;;;;;5011029;28;20030;-81
2021/11/07 00:54:52;;;;;;;80.82;26.85;;;4.90;99.90;;;;;;5016390;28;20443;-82
2021/11/07 00:57:37;;;;;;;77.35;26.10;;;4.90;99.90;;;;;;5018481;28;20486;-81
2021/11/07 01:00:15;;;;;;;86.10;25.83;;;4.90;99.90;;;;;;5005904;28;20494;-81
2021/11/07 01:02:41;;;;;;;91.20;27.83;;;5.00;99.90;;;;;;5019400;28;20057;-81
2021/11/07 01:05:19;;;;;;;85.60;27.30;;;4.90;99.90;;;;;;5017908;28;20038;-81
2021/11/07 01:07:45;;;;;;;100.85;28.25;;;4.90;99.90;;;;;;5018632;28;20093;-81
2021/11/07 01:10:11;;;;;;;110.10;28.45;;;6.40;99.90;;;;;;5019453;28;20454;-81
2021/11/07 01:12:37;;;;;;;108.25;28.40;;;4.80;99.90;;;;;;5020174;28;20398;-81
2021/11/07 01:15:04;;;;;;;95.80;27.33;;;5.00;99.90;;;;;;5001898;28;20041;-81
2021/11/07 01:17:30;;;;;;;98.43;28.20;;;4.90;99.90;;;;;;5018560;28;20402;-81
2021/11/07 01:19:57;;;;;;;94.60;28.67;;;5.00;99.90;;;;;;5020752;28;20042;-81
2021/11/07 01:22:34;;;;;;;98.57;28.00;;;4.80;99.90;;;;;;5003206;28;20568;-81
2021/11/07 01:25:01;;;;;;;95.38;27.60;;;4.90;99.90;;;;;;5003470;28;20519;-81
2021/11/07 01:27:33;;;;;;;81.97;26.23;;;6.60;99.90;;;;;;5020956;28;20037;-81
2021/11/07 01:30:01;;;;;;;108.15;28.77;;;4.90;99.90;;;;;;5021066;28;20092;-80
2021/11/07 01:32:27;;;;;;;108.57;29.23;;;4.80;99.90;;;;;;5020297;28;20026;-81
2021/11/07 01:37:43;;;;;;;108.55;29.83;;;4.80;99.90;;;;;;5021496;28;20023;-80
2021/11/07 01:40:15;;;;;;;90.22;27.60;;;4.80;99.90;;;;;;5007187;28;20094;-79
2021/11/07 01:42:52;;;;;;;89.78;27.70;;;4.90;99.90;;;;;;5031669;28;20086;-80
2021/11/07 01:45:25;;;;;;;98.72;26.88;;;4.80;99.90;;;;;;5034241;28;20120;-80
2021/11/07 01:47:55;;;;;;;95.05;27.58;;;4.90;99.90;;;;;;5012727;28;20486;-80
2021/11/07 01:50:21;;;;;;;116.45;29.27;;;5.10;99.90;;;;;;5022560;28;20029;-80
2021/11/07 01:52:54;;;;;;;97.75;26.48;;;5.20;99.90;;;;;;5020740;28;20026;-80
2021/11/07 01:55:20;;;;;;;95.57;27.13;;;5.00;99.90;;;;;;5005522;28;20036;-80
2021/11/07 01:57:50;;;;;;;94.15;26.85;;;4.90;99.90;;;;;;5023055;28;20054;-80
2021/11/07 02:00:24;;;;;;;107.95;28.52;;;7.40;99.90;;;;;;5038076;28;20026;-80
2021/11/07 02:02:50;;;;;;;98.97;28.10;;;5.00;99.90;;;;;;5022151;28;20117;-79
2021/11/07 02:05:16;;;;;;;91.45;28.20;;;4.80;99.90;;;;;;5022267;28;20025;-80
2021/11/07 02:07:42;;;;;;;103.40;28.23;;;5.10;99.90;;;;;;5024902;28;20034;-80
2021/11/07 02:10:11;;;;;;;100.15;28.92;;;5.00;99.90;;;;;;5029804;28;20068;-80
2021/11/07 02:12:39;;;;;;;103.25;29.55;;;5.00;99.90;;;;;;5029871;28;20064;-80
2021/11/07 02:15:08;;;;;;;105.40;28.70;;;5.20;99.90;;;;;;5025240;28;20026;-80
2021/11/07 02:17:33;;;;;;;101.40;27.95;;;5.10;99.90;;;;;;5022543;28;20021;-80
2021/11/07 02:20:03;;;;;;;108.25;27.20;;;5.10;99.90;;;;;;5020078;28;20569;-80
2021/11/07 02:22:30;;;;;;;114.80;31.63;;;5.20;99.90;;;;;;5003892;28;20018;-80
2021/11/07 02:24:56;;;;;;;95.93;29.30;;;5.10;99.90;;;;;;5003169;28;20037;-80
2021/11/07 02:27:23;;;;;;;108.43;29.67;;;5.10;99.90;;;;;;5021607;28;20061;-80
2021/11/07 02:29:50;;;;;;;100.85;28.50;;;5.10;99.90;;;;;;5022727;28;20018;-79
2021/11/07 02:32:16;;;;;;;91.72;28.65;;;5.40;99.90;;;;;;5031010;28;20045;-80
2021/11/07 02:34:43;;;;;;;111.97;32.42;;;5.80;99.90;;;;;;5015113;28;20057;-80
2021/11/07 02:37:10;;;;;;;95.93;30.52;;;5.20;99.90;;;;;;5032301;28;20014;-80
2021/11/07 02:39:36;;;;;;;108.10;31.98;;;5.30;99.90;;;;;;5032088;28;20069;-80
2021/11/07 02:42:02;;;;;;;110.13;31.23;;;5.40;99.90;;;;;;5030808;28;20396;-80
2021/11/07 02:44:34;;;;;;;117.85;33.75;;;5.30;99.90;;;;;;5030885;28;20030;-81
2021/11/07 02:47:01;;;;;;;92.47;30.08;;;5.40;99.90;;;;;;5031573;28;20029;-80
2021/11/07 02:49:27;;;;;;;100.80;32.47;;;5.30;99.90;;;;;;5028508;28;20486;-80
2021/11/07 02:51:57;;;;;;;94.68;29.67;;;5.30;99.90;;;;;;5021297;28;20061;-80
2021/11/07 02:54:23;;;;;;;95.55;31.00;;;5.40;99.90;;;;;;5004798;28;20144;-80
2021/11/07 02:56:51;;;;;;;82.80;30.35;;;5.40;99.90;;;;;;5029143;28;20074;-80
2021/11/07 02:59:22;;;;;;;88.40;29.58;;;5.50;99.90;;;;;;5034049;28;20030;-79
2021/11/07 03:01:49;;;;;;;93.17;31.50;;;5.50;99.90;;;;;;5017233;28;20102;-80
2021/11/07 03:04:15;;;;;;;88.43;32.45;;;5.50;99.90;;;;;;5033781;28;20303;-80
2021/11/07 03:06:43;;;;;;;93.55;31.92;;;5.50;99.90;;;;;;5032093;28;20033;-79
2021/11/07 03:09:22;;;;;;;78.45;30.05;;;5.50;99.90;;;;;;5033311;28;20029;-80
2021/11/07 03:11:50;;;;;;;83.13;31.70;;;5.50;99.90;;;;;;5032980;28;20021;-80
2021/11/07 03:14:24;;;;;;;81.47;31.65;;;5.70;99.90;;;;;;5031208;28;20053;-80
2021/11/07 03:16:50;;;;;;;69.18;27.83;;;5.60;99.90;;;;;;5030222;28;20049;-80
2021/11/07 03:19:20;;;;;;;57.17;27.85;;;7.00;99.90;;;;;;5028954;28;20049;-80
2021/11/07 03:21:46;;;;;;;58.60;25.95;;;7.10;99.90;;;;;;5014523;28;20026;-80
2021/11/07 03:24:14;;;;;;;57.28;26.42;;;6.40;99.90;;;;;;5028584;28;20030;-80
2021/11/07 03:26:40;;;;;;;55.72;26.88;;;5.80;99.90;;;;;;5012362;28;20098;-79
2021/11/07 03:29:08;;;;;;;51.45;25.90;;;5.80;99.90;;;;;;5031666;28;20101;-80
2021/11/07 03:32:02;;;;;;;50.53;25.63;;;6.70;99.90;;;;;;5022469;28;20030;-80
2021/11/07 03:34:32;;;;;;;45.78;24.73;;;6.20;99.90;;;;;;5015744;28;20053;-80
2021/11/07 03:37:01;;;;;;;51.47;26.25;;;5.80;99.90;;;;;;5001394;28;20503;-80
2021/11/07 03:39:34;;;;;;;45.92;24.70;;;5.90;99.90;;;;;;5016910;28;20039;-80
2021/11/07 03:42:04;;;;;;;45.10;22.90;;;7.50;99.90;;;;;;5018223;28;20076;-81
2021/11/07 03:44:30;;;;;;;41.63;23.13;;;5.90;99.90;;;;;;5014726;28;20033;-80
2021/11/07 03:46:57;;;;;;;37.10;21.92;;;5.90;99.90;;;;;;5015795;28;20025;-80
2021/11/07 03:49:23;;;;;;;34.75;18.17;;;7.30;99.90;;;;;;5016164;28;20080;-80
2021/11/07 03:51:50;;;;;;;38.40;20.42;;;7.50;99.90;;;;;;5017325;28;20053;-80
2021/11/07 03:54:17;;;;;;;36.25;18.65;;;5.90;99.90;;;;;;5015648;28;20026;-80
2021/11/07 03:56:43;;;;;;;34.75;20.15;;;7.50;99.90;;;;;;5015956;28;20026;-79
2021/11/07 03:59:09;;;;;;;39.03;22.10;;;5.70;99.90;;;;;;5016222;28;20029;-79
2021/11/07 04:01:36;;;;;;;32.30;18.17;;;7.20;99.90;;;;;;5026341;28;20061;-79
2021/11/07 04:04:04;;;;;;;34.67;19.23;;;7.40;99.90;;;;;;5033703;28;20024;-79
2021/11/07 04:06:30;;;;;;;32.15;18.25;;;5.80;99.90;;;;;;5034222;28;20033;-79
2021/11/07 04:08:56;;;;;;;36.50;19.08;;;5.80;99.90;;;;;;5034462;28;20038;-79
2021/11/07 04:11:22;;;;;;;34.45;20.83;;;7.60;99.90;;;;;;5018145;28;20073;-80
2021/11/07 04:13:48;;;;;;;35.42;20.17;;;5.80;99.90;;;;;;5022352;28;20678;-80
2021/11/07 04:16:14;;;;;;;35.08;20.67;;;5.90;99.90;;;;;;4999215;28;20030;-80
2021/11/07 04:18:41;;;;;;;33.70;20.50;;;5.80;99.90;;;;;;5017682;28;20028;-80
2021/11/07 04:21:08;;;;;;;35.13;19.60;;;5.90;99.90;;;;;;5017757;28;20076;-80
2021/11/07 04:23:34;;;;;;;35.45;19.55;;;6.60;99.90;;;;;;4998953;28;20053;-80
2021/11/07 04:26:00;;;;;;;30.67;18.17;;;5.90;99.90;;;;;;5015574;28;20033;-80
2021/11/07 04:28:26;;;;;;;34.03;18.35;;;7.80;99.90;;;;;;5018496;28;20022;-80
2021/11/07 04:30:53;;;;;;;32.55;19.42;;;5.90;99.90;;;;;;5019590;28;20026;-81
2021/11/07 04:33:19;;;;;;;37.28;17.98;;;5.90;99.90;;;;;;5020008;28;20021;-80
2021/11/07 04:35:45;;;;;;;32.75;20.00;;;5.80;99.90;;;;;;5020583;28;20041;-80
2021/11/07 04:38:10;;;;;;;34.55;20.38;;;5.80;99.90;;;;;;5020047;28;20030;-80
2021/11/07 04:40:36;;;;;;;36.53;19.40;;;5.80;99.90;;;;;;5019766;28;20030;-80
2021/11/07 04:43:02;;;;;;;37.58;20.13;;;5.80;99.90;;;;;;5020237;28;20026;-80
2021/11/07 04:45:28;;;;;;;36.33;20.70;;;5.80;99.90;;;;;;5019043;28;20037;-80
2021/11/07 04:47:54;;;;;;;34.15;20.02;;;6.00;99.90;;;;;;5019406;28;20029;-80
2021/11/07 04:50:20;;;;;;;39.47;20.60;;;5.90;99.90;;;;;;5004074;28;20449;-81
2021/11/07 04:52:46;;;;;;;37.17;20.30;;;6.70;99.90;;;;;;5021141;28;20026;-80
2021/11/07 04:55:13;;;;;;;32.92;18.77;;;5.80;99.90;;;;;;5019186;28;20452;-81
2021/11/07 04:57:42;;;;;;;34.22;19.83;;;7.50;99.90;;;;;;5021603;28;20026;-81
2021/11/07 05:00:16;;;;;;;34.03;19.98;;;7.00;99.90;;;;;;5020112;28;20029;-80
2021/11/07 05:02:42;;;;;;;33.35;18.63;;;5.80;99.90;;;;;;5019565;28;20025;-80
2021/11/07 05:05:09;;;;;;;33.40;18.77;;;7.60;99.90;;;;;;5022300;28;20038;-81
2021/11/07 05:07:34;;;;;;;35.05;19.30;;;5.90;99.90;;;;;;5019213;28;20050;-80
2021/11/07 05:10:00;;;;;;;34.00;19.83;;;5.90;99.90;;;;;;4990678;28;20037;-81
2021/11/07 05:12:28;;;;;;;34.95;18.92;;;5.90;99.90;;;;;;5042668;22;20104;-80
2021/11/07 05:14:54;;;;;;;34.80;18.83;;;5.90;99.90;;;;;;5026779;28;20040;-79
2021/11/07 05:17:20;;;;;;;40.95;20.05;;;5.90;99.90;;;;;;5032610;28;20030;-79
2021/11/07 05:19:45;;;;;;;36.65;20.05;;;5.80;99.90;;;;;;5032447;28;20486;-79
2021/11/07 05:22:11;;;;;;;42.78;20.92;;;6.00;99.90;;;;;;5017440;28;20048;-79
2021/11/07 05:24:37;;;;;;;39.08;19.90;;;6.50;99.90;;;;;;5016575;28;20074;-79
2021/11/07 05:27:03;;;;;;;30.83;17.58;;;5.80;99.90;;;;;;5017235;28;20099;-78
2021/11/07 05:29:29;;;;;;;36.13;18.95;;;5.70;99.90;;;;;;5016732;28;20033;-78
2021/11/07 05:31:55;;;;;;;35.67;19.67;;;5.80;99.90;;;;;;5015668;28;20034;-79
2021/11/07 05:34:21;;;;;;;34.28;18.75;;;5.70;99.90;;;;;;5015178;28;20026;-79
2021/11/07 05:36:47;;;;;;;35.28;17.98;;;5.70;99.90;;;;;;5014371;28;20076;-79
2021/11/07 05:39:13;;;;;;;35.35;17.75;;;5.60;99.90;;;;;;5009695;28;20407;-78
2021/11/07 05:41:40;;;;;;;34.63;19.08;;;5.60;99.90;;;;;;4999161;28;20422;-78
2021/11/07 05:44:06;;;;;;;25.80;15.77;;;5.50;99.90;;;;;;5000248;28;20053;-79
2021/11/07 05:46:32;;;;;;;31.83;18.15;;;5.40;99.90;;;;;;5016430;28;20026;-79
2021/11/07 05:48:58;;;;;;;28.92;16.52;;;5.90;99.90;;;;;;5017990;28;20054;-78
2021/11/07 05:51:24;;;;;;;31.58;17.48;;;5.50;99.90;;;;;;5017335;28;20030;-78
2021/11/07 05:53:50;;;;;;;33.17;18.45;;;5.50;99.90;;;;;;5018266;28;20169;-78
2021/11/07 05:56:16;;;;;;;34.85;17.02;;;5.60;99.90;;;;;;5030394;28;20040;-78
2021/11/07 05:58:42;;;;;;;31.58;17.85;;;5.50;99.90;;;;;;5030158;28;20030;-77
2021/11/07 06:01:09;;;;;;;33.83;17.77;;;5.50;99.90;;;;;;5018074;28;20449;-78
2021/11/07 06:03:35;;;;;;;30.27;17.83;;;5.50;99.90;;;;;;5021357;28;20071;-78
2021/11/07 06:06:01;;;;;;;29.20;17.55;;;5.50;99.90;;;;;;5014772;28;20026;-77
2021/11/07 06:08:27;;;;;;;30.67;17.92;;;5.50;99.90;;;;;;5014930;28;20033;-79
2021/11/07 06:10:53;;;;;;;27.02;14.98;;;6.80;99.90;;;;;;5019102;28;20032;-78
2021/11/07 06:13:19;;;;;;;29.73;14.90;;;5.60;99.90;;;;;;5015020;28;20038;-77
2021/11/07 06:15:44;;;;;;;27.25;15.93;;;5.50;99.90;;;;;;5014480;28;20106;-78
2021/11/07 06:18:10;;;;;;;29.10;14.82;;;5.40;99.90;;;;;;5016210;28;20554;-78
2021/11/07 06:20:36;;;;;;;28.70;15.30;;;6.70;99.90;;;;;;5015710;28;20029;-78
2021/11/07 06:23:03;;;;;;;24.40;13.73;;;5.50;99.90;;;;;;5015822;28;20556;-79
2021/11/07 06:25:28;;;;;;;25.27;13.70;;;5.60;99.90;;;;;;5015022;28;20030;-79
2021/11/07 06:27:54;;;;;;;27.00;13.80;;;6.60;99.90;;;;;;5016398;28;20026;-76
2021/11/07 06:30:20;;;;;;;20.73;12.82;;;5.60;99.90;;;;;;5016567;28;20080;-77
2021/11/07 06:32:46;;;;;;;19.30;11.75;;;5.80;99.90;;;;;;5014851;28;20091;-78
2021/11/07 06:35:13;;;;;;;20.75;12.52;;;5.70;99.90;;;;;;5014930;28;20041;-78
2021/11/07 06:37:40;;;;;;;17.95;11.48;;;5.80;99.90;;;;;;5010793;28;20049;-76
2021/11/07 06:40:07;;;;;;;22.92;11.45;;;5.70;99.90;;;;;;4993878;28;20031;-78
2021/11/07 06:42:33;;;;;;;23.17;12.75;;;5.70;99.90;;;;;;4996125;28;20034;-78
2021/11/07 06:44:59;;;;;;;20.52;12.10;;;5.70;99.90;;;;;;5008493;28;20042;-78
2021/11/07 06:47:25;;;;;;;18.75;12.10;;;5.70;99.90;;;;;;5015729;28;20045;-79
2021/11/07 06:49:51;;;;;;;22.00;12.38;;;5.70;99.90;;;;;;5015179;28;20029;-77
2021/11/07 06:52:16;;;;;;;18.83;11.85;;;7.60;99.90;;;;;;5014437;28;20065;-77
2021/11/07 06:54:42;;;;;;;23.35;11.93;;;5.50;99.90;;;;;;5015110;28;20054;-79
2021/11/07 06:57:08;;;;;;;19.52;11.93;;;5.40;99.90;;;;;;5018548;28;20033;-80
2021/11/07 06:59:34;;;;;;;20.23;12.80;;;6.10;99.90;;;;;;5017178;28;20025;-80
2021/11/07 07:01:59;;;;;;;21.45;13.65;;;5.40;99.90;;;;;;5019653;28;20585;-80
2021/11/07 07:04:25;;;;;;;21.95;12.68;;;5.50;99.90;;;;;;5015910;28;20033;-77
2021/11/07 07:06:51;;;;;;;20.83;12.98;;;5.40;99.90;;;;;;5014795;28;20543;-79
2021/11/07 07:09:28;;;;;;;21.85;12.23;;;5.40;99.90;;;;;;5017112;28;20018;-78
2021/11/07 07:12:58;;;;;;;20.80;11.90;;;5.50;99.90;;;;;;5018138;28;20038;-79
2021/11/07 07:15:11;;;;;;;21.13;12.90;;;5.40;99.90;;;;;;5003021;28;20046;-79
2021/11/07 07:23:28;;;;;;;21.75;12.45;;;5.40;99.90;;;;;;4977741;28;20038;-78
2021/11/07 07:29:03;;;;;;;24.33;13.27;;;5.60;99.90;;;;;;5011543;28;20052;-77
2021/11/07 07:34:08;;;;;;;22.30;12.73;;;5.90;99.90;;;;;;5005895;28;20117;-77
2021/11/07 07:36:35;;;;;;;22.00;13.25;;;6.10;99.90;;;;;;4999004;28;20434;-77
2021/11/07 07:39:03;;;;;;;22.70;12.82;;;6.50;99.90;;;;;;5005227;28;20057;-78
2021/11/07 07:41:28;;;;;;;21.92;12.82;;;6.30;99.90;;;;;;5009877;28;20032;-81
2021/11/07 07:43:56;;;;;;;23.25;13.43;;;6.20;99.90;;;;;;5008737;28;20714;-76
2021/11/07 07:46:22;;;;;;;21.95;13.38;;;6.40;99.90;;;;;;5008447;28;20038;-78
2021/11/07 07:48:48;;;;;;;20.02;13.38;;;6.40;99.90;;;;;;5004077;28;20443;-77
2021/11/07 07:51:16;;;;;;;19.75;11.98;;;6.50;99.90;;;;;;5006352;28;20030;-80
2021/11/07 07:53:42;;;;;;;23.10;12.10;;;7.80;99.90;;;;;;5012290;28;20537;-80
2021/11/07 07:56:09;;;;;;;17.10;10.55;;;6.50;99.90;;;;;;5016890;28;20034;-77
2021/11/07 07:58:36;;;;;;;19.35;11.50;;;7.80;99.90;;;;;;5013579;28;20445;-79
2021/11/07 08:01:05;;;;;;;16.88;10.57;;;7.70;99.90;;;;;;5015489;28;20041;-80
2021/11/07 08:03:31;;;;;;;18.45;10.63;;;6.60;99.90;;;;;;5017763;28;20372;-80
2021/11/07 08:05:57;;;;;;;15.70;10.07;;;6.60;99.90;;;;;;5009987;28;20084;-78
2021/11/07 08:08:22;;;;;;;15.23;9.50;;;6.70;99.90;;;;;;5017769;28;20045;-80
2021/11/07 08:10:48;;;;;;;17.48;10.50;;;6.80;99.90;;;;;;5020938;28;20357;-77
2021/11/07 08:13:14;;;;;;;19.60;9.98;;;8.70;99.90;;;;;;5011688;28;20121;-80
2021/11/07 08:15:40;;;;;;;16.48;9.48;;;7.10;99.90;;;;;;5024929;28;20033;-80
2021/11/07 08:18:05;;;;;;;14.32;8.75;;;7.10;99.90;;;;;;5030675;28;20041;-79
2021/11/07 08:20:31;;;;;;;17.20;9.88;;;7.20;99.90;;;;;;5027028;28;20021;-79
2021/11/07 08:22:57;;;;;;;16.10;9.40;;;7.20;99.90;;;;;;5022764;28;20560;-79
2021/11/07 08:25:24;;;;;;;14.40;8.82;;;7.20;99.90;;;;;;5020945;28;20510;-79
2021/11/07 08:28:03;;;;;;;15.27;8.70;;;7.20;99.90;;;;;;5020568;28;20471;-79
2021/11/07 08:30:31;;;;;;;16.00;8.95;;;8.20;99.90;;;;;;5021293;28;20033;-79
2021/11/07 08:32:58;;;;;;;13.70;8.35;;;7.90;99.90;;;;;;5021234;28;20037;-80
2021/11/07 08:35:24;;;;;;;12.98;8.18;;;9.30;99.90;;;;;;5020826;28;20105;-79
2021/11/07 08:38:01;;;;;;;12.38;8.18;;;9.90;99.90;;;;;;5020596;28;20034;-78
2021/11/07 08:40:31;;;;;;;13.32;8.00;;;9.60;99.90;;;;;;5009811;28;20061;-78
2021/11/07 09:00:17;;;;;;;14.32;8.35;;;8.90;99.90;;;;;;5020574;28;20048;-79
2021/11/07 09:02:38;;;;;;;16.25;7.53;;;9.10;99.90;;;;;;5020689;28;20034;-80
2021/11/07 09:10:04;;;;;;;13.80;8.52;;;8.50;99.90;;;;;;5021332;28;20170;-79
2021/11/07 09:12:30;;;;;;;12.18;8.10;;;8.50;99.90;;;;;;5006343;28;20034;-79
2021/11/07 09:14:56;;;;;;;14.23;8.82;;;10.10;99.90;;;;;;5010998;28;20063;-79
2021/11/07 09:17:22;;;;;;;17.35;9.52;;;8.40;99.90;;;;;;4996030;28;20410;-79
2021/11/07 09:19:51;;;;;;;15.48;8.77;;;8.20;99.90;;;;;;5014206;28;20075;-79
2021/11/07 09:25:00;;;;;;;12.98;7.82;;;8.20;99.90;;;;;;5016990;28;20037;-79
2021/11/07 09:27:32;;;;;;;14.77;8.38;;;8.20;99.90;;;;;;5015221;28;20037;-79
2021/11/07 09:30:16;;;;;;;16.40;9.57;;;10.40;99.90;;;;;;5015815;28;20049;-78
2021/11/07 09:38:05;;;;;;;13.50;8.60;;;10.20;99.90;;;;;;5017201;28;20060;-79
2021/11/07 09:40:34;;;;;;;14.75;9.02;;;9.40;99.90;;;;;;5017308;28;20502;-79
2021/11/07 09:43:36;;;;;;;14.75;8.68;;;9.00;99.90;;;;;;5016052;28;20033;-78
2021/11/07 09:45:57;;;;;;;14.98;9.45;;;9.00;99.90;;;;;;5015849;28;20042;-78
2021/11/07 09:48:34;;;;;;;16.08;9.20;;;8.70;99.90;;;;;;5017089;28;20026;-77
2021/11/07 09:50:59;;;;;;;14.13;9.10;;;9.90;99.90;;;;;;5016498;28;20022;-78
2021/11/07 09:53:25;;;;;;;15.32;8.77;;;10.20;99.90;;;;;;5015735;28;20606;-77
2021/11/07 09:55:52;;;;;;;22.85;9.38;;;8.80;99.90;;;;;;5013979;28;20038;-77
2021/11/07 09:58:18;;;;;;;14.90;8.43;;;10.40;99.90;;;;;;5011129;28;20032;-77
2021/11/07 10:00:50;;;;;;;13.05;8.68;;;10.30;99.90;;;;;;5024792;28;20636;-76
2021/11/07 10:03:18;;;;;;;14.45;8.45;;;9.40;99.90;;;;;;5009314;28;20645;-77
2021/11/07 10:05:48;;;;;;;13.45;8.60;;;10.90;99.90;;;;;;5009602;28;20046;-78
2021/11/07 10:08:15;;;;;;;13.15;8.25;;;;;;;;;;5008746;28;20064;-78
2021/11/07 10:11:04;;;;;;;12.13;8.02;;;;;;;;;;5000018;28;20113;-77
2021/11/07 10:13:29;;;;;;;13.95;8.38;;;;;;;;;;5008393;28;20041;-78
2021/11/07 10:15:59;;;;;;;12.65;7.63;;;;;;;;;;5017137;28;20053;-78
2021/11/07 10:18:39;;;;;;;11.15;7.60;;;;;;;;;;5009606;28;20030;-77
2021/11/07 10:21:14;;;;;;;13.02;8.43;;;;;;;;;;4989334;28;20077;-77
2021/11/07 10:23:44;;;;;;;12.57;8.35;;;;;;;;;;5006935;28;20128;-77
2021/11/07 10:28:54;;;;;;;16.02;8.25;;;;;;;;;;5005398;28;20049;-76
2021/11/07 10:31:27;;;;;;;12.68;7.90;;;;;;;;;;5017147;28;20034;-79
2021/11/07 10:45:05;;;;;;;8.73;5.97;;;;;;;;;;5001624;28;20128;-75
2021/11/07 10:52:44;;;;;;;11.40;7.00;;;;;;;;;;5021274;22;20053;-78
2021/11/07 10:55:23;;;;;;;9.02;6.10;;;;;;;;;;5012586;28;20108;-77
2021/11/07 10:57:51;;;;;;;9.82;6.10;;;;;;;;;;5008574;28;20115;-77
2021/11/07 11:00:23;;;;;;;9.50;6.55;;;;;;;;;;4992760;28;20387;-77
2021/11/07 11:02:50;;;;;;;;;;;;;;;;;;4992344;28;20018;-78
2021/11/07 11:05:21;;;;;;;7.97;5.40;;;;;;;;;;5004639;28;19913;-77
2021/11/07 11:07:56;;;;;;;10.30;5.55;;;;;;;;;;5011152;28;20038;-77
2021/11/07 11:10:29;;;;;;;9.00;5.40;;;;;;;;;;5013717;28;20024;-76
2021/11/07 11:13:10;;;;;;;8.02;5.18;;;;;;;;;;5012400;28;20030;-77
2021/11/07 11:15:50;;;;;;;7.93;5.07;;;;;;;;;;5012321;28;20049;-77
2021/11/07 11:18:33;;;;;;;7.93;4.72;;;;;;;;;;5012997;28;20024;-78
2021/11/07 11:21:48;;;;;;;9.02;5.00;;;;;;;;;;5012345;28;20113;-78
2021/11/07 11:29:09;;;;;;;7.72;4.53;;;;;;;;;;5011882;28;20583;-78
2021/11/07 11:32:02;;;;;;;7.35;4.85;;;;;;;;;;5013274;28;20022;-78
2021/11/07 11:34:28;;;;;;;8.57;4.63;;;;;;;;;;5014171;28;20395;-79
2021/11/07 11:37:08;;;;;;;9.90;5.18;;;;;;;;;;5018073;28;20479;-80
2021/11/07 11:39:40;;;;;;;6.55;4.10;;;;;;;;;;5018209;28;20022;-78
2021/11/07 11:42:17;;;;;;;8.15;4.93;;;;;;;;;;5016690;28;20070;-79
2021/11/07 11:44:51;;;;;;;9.40;5.10;;;;;;;;;;5005568;28;20026;-77
2021/11/07 11:47:45;;;;;;;10.10;4.82;;;;;;;;;;5012168;28;20401;-78
2021/11/07 11:53:07;;;;;;;6.47;4.23;;;;;;;;;;5011745;28;20462;-76
2021/11/07 11:55:39;;;;;;;8.57;5.30;;;;;;;;;;4998050;28;20030;-76
2021/11/07 12:00:48;;;;;;;7.97;4.75;;;;;;;;;;4991805;28;20023;-76
2021/11/07 12:03:44;;;;;;;10.38;5.75;;;;;;;;;;5007332;28;20022;-77
2021/11/07 12:06:23;;;;;;;11.93;5.72;;;;;;;;;;5003233;28;20442;-77
2021/11/07 12:09:11;;;;;;;10.02;5.78;;;;;;;;;;5010627;28;20026;-77
2021/11/07 12:11:46;;;;;;;12.55;6.50;;;;;;;;;;5014997;28;20018;-77
2021/11/07 12:17:00;;;;;;;9.02;5.70;;;;;;;;;;5011680;28;20099;-78
2021/11/07 12:19:31;;;;;;;9.95;5.53;;;;;;;;;;5012345;28;20034;-78
2021/11/07 12:22:00;;;;;;;11.43;6.70;;;;;;;;;;5009437;28;20398;-78
2021/11/07 12:24:32;;;;;;;8.40;5.40;;;;;;;;;;5017899;28;20026;-78
2021/11/07 12:27:17;;;;;;;8.48;5.50;;;;;;;;;;5012077;28;20033;-79
2021/11/07 12:29:43;;;;;;;8.82;5.65;;;;;;;;;;5011620;28;20030;-78
2021/11/07 12:32:14;;;;;;;9.35;5.53;;;;;;;;;;5011547;28;20049;-78
2021/11/07 12:35:21;;;;;;;9.00;6.00;;;;;;;;;;5003659;28;20034;-78
2021/11/07 12:40:35;;;;;;;8.05;4.80;;;;;;;;;;4951114;29;20427;-77
2021/11/07 12:43:12;;;;;;;7.60;4.47;;;;;;;;;;4978419;28;20042;-78
2021/11/07 12:45:40;;;;;;;6.68;4.13;;;;;;;;;;5010742;28;20104;-77
2021/11/07 12:48:08;;;;;;;9.70;4.53;;;;;;;;;;5012385;28;20026;-77
2021/11/07 12:50:50;;;;;;;8.20;4.70;;;;;;;;;;5014659;28;20022;-77
2021/11/07 12:53:16;;;;;;;8.05;4.25;;;;;;;;;;5014688;28;20452;-77
2021/11/07 12:55:42;;;;;;;7.80;4.38;;;;;;;;;;5013244;28;20026;-77
2021/11/07 12:58:08;;;;;;;9.73;5.18;;;;;;;;;;5014570;28;20030;-77
2021/11/07 13:00:34;;;;;;;10.73;5.03;;;;;;;;;;5014898;28;20029;-77
2021/11/07 13:03:11;;;;;;;9.95;5.35;;;;;;;;;;5014459;28;20036;-77
2021/11/07 13:05:38;;;;;;;10.63;5.15;;;9.90;99.90;;;;;;5013628;28;20033;-78
2021/11/07 13:08:07;;;;;;;9.05;5.28;;;8.00;99.90;;;;;;5014221;28;20028;-77
2021/11/07 13:16:03;;;;;;;9.70;6.20;;;7.80;99.90;;;;;;5013707;28;20483;-77
2021/11/07 13:32:11;;;;;;;10.85;5.43;;;7.90;99.90;;;;;;5013017;28;20084;-77
2021/11/07 13:35:09;;;;;;;12.05;7.22;;;8.10;99.90;;;;;;5012632;28;20038;-77
2021/11/07 13:37:43;;;;;;;10.32;6.25;;;7.80;99.90;;;;;;5014369;28;20033;-77
2021/11/07 13:40:14;;;;;;;11.55;7.30;;;7.80;99.90;;;;;;5014075;28;20487;-77
2021/11/07 13:42:43;;;;;;;8.95;6.45;;;7.70;99.90;;;;;;5013289;28;20041;-77
2021/11/07 13:45:20;;;;;;;11.90;6.43;;;7.90;99.90;;;;;;5013711;28;20045;-77
2021/11/07 13:47:46;;;;;;;8.90;6.07;;;7.90;99.90;;;;;;5013905;28;20084;-76
2021/11/07 13:50:18;;;;;;;10.80;5.82;;;8.00;99.90;;;;;;5013221;28;20034;-77
2021/11/07 13:52:45;;;;;;;8.45;5.22;;;8.00;99.90;;;;;;5013547;28;20034;-77
2021/11/07 13:55:20;;;;;;;9.00;5.65;;;9.20;99.90;;;;;;5004627;28;20558;-76
2021/11/07 13:57:47;;;;;;;11.77;5.80;;;7.90;99.90;;;;;;5013630;28;20556;-76
2021/11/07 14:00:17;;;;;;;9.75;5.63;;;9.60;99.90;;;;;;5013716;28;20475;-77
2021/11/07 14:02:54;;;;;;;9.65;5.53;;;7.90;99.90;;;;;;5013246;28;20061;-76
2021/11/07 14:05:21;;;;;;;8.80;5.38;;;8.10;99.90;;;;;;5012660;28;20084;-76
2021/11/07 14:08:06;;;;;;;7.25;4.68;;;8.00;99.90;;;;;;5013488;28;20592;-77
2021/11/07 14:10:35;;;;;;;10.48;5.55;;;8.00;99.90;;;;;;5012649;28;20540;-76
2021/11/07 14:13:11;;;;;;;9.70;5.07;;;8.50;99.90;;;;;;5013400;28;20494;-76
2021/11/07 14:15:42;;;;;;;7.82;5.85;;;8.10;99.90;;;;;;5013088;28;20038;-77
2021/11/07 14:18:18;;;;;;;7.75;4.47;;;9.70;99.90;;;;;;5009839;28;20021;-77
2021/11/07 14:20:51;;;;;;;6.90;4.93;;;8.20;99.90;;;;;;5012197;28;20468;-77
2021/11/07 14:23:36;;;;;;;9.45;5.47;;;8.30;99.90;;;;;;5011569;28;20061;-77
2021/11/07 14:26:11;;;;;;;10.38;5.15;;;9.50;99.90;;;;;;5011261;28;20538;-76
2021/11/07 14:31:35;;;;;;;9.75;5.20;;;8.30;99.90;;;;;;5009903;28;20026;-77
2021/11/07 14:34:05;;;;;;;10.93;5.13;;;8.20;99.90;;;;;;5013323;28;20018;-77
2021/11/07 14:40:00;;;;;;;7.68;4.85;;;8.20;99.90;;;;;;5013785;28;20389;-77
2021/11/07 14:44:50;;;;;;;7.55;5.20;;;8.40;99.90;;;;;;5000043;28;20438;-78
2021/11/07 14:52:57;;;;;;;10.48;5.90;;;8.30;99.90;;;;;;4997357;28;20042;-77
2021/11/07 14:55:31;;;;;;;11.50;5.95;;;8.30;99.90;;;;;;4997764;28;20395;-77
2021/11/07 14:58:29;;;;;;;13.43;5.63;;;8.30;99.90;;;;;;5014302;28;20030;-77
2021/11/07 15:01:37;;;;;;;11.27;5.72;;;8.20;99.90;;;;;;5013568;28;20026;-77
2021/11/07 15:04:16;;;;;;;11.43;5.50;;;8.30;99.90;;;;;;5012081;28;20034;-77
2021/11/07 15:07:04;;;;;;;9.50;6.20;;;9.90;99.90;;;;;;5012678;28;20103;-76
2021/11/07 15:09:35;;;;;;;9.27;6.30;;;8.20;99.90;;;;;;5011683;28;20080;-78
2021/11/07 15:12:23;;;;;;;14.07;6.07;;;8.30;99.90;;;;;;5012284;28;20140;-76
2021/11/07 15:18:11;;;;;;;12.15;6.38;;;8.30;99.90;;;;;;5012572;28;20034;-76
2021/11/07 15:20:46;;;;;;;8.57;6.20;;;;;;;;;;5010832;28;20120;-76
2021/11/07 15:23:26;;;;;;;9.35;6.35;;;;;;;;;;5012355;28;20117;-77
2021/11/07 15:25:52;;;;;;;10.43;6.85;;;;;;;;;;5010142;28;20367;-77
2021/11/07 15:28:18;;;;;;;11.50;6.80;;;8.30;99.90;;;;;;5011192;28;20028;-77
2021/11/07 15:30:44;;;;;;;11.20;7.10;;;8.90;99.90;;;;;;5011025;28;20022;-77